Time;durP1;ratioP1;P1;durP2;ratioP2;P2;SDS_P1;SDS_P2;PMS_P1;PMS_P2;Temp;Humidity;BMP_temperature;BMP_pressure;BME280_temperature;BME280_humidity;BME280_pressure;Samples;Min_cycle;Max_cycle;Signal;HPM_P1;HPM_P2
2022/11/08 00:02:38;;;;;;;11.53;3.93;;;;;;;;;;5094185;28;20193;-90
2022/11/08 00:16:12;;;;;;;8.23;4.40;;;;;;;;;;5092830;28;20193;-91
2022/11/08 00:18:41;;;;;;;6.43;3.47;;;;;;;;;;5093076;28;20208;-91
2022/11/08 00:21:09;;;;;;;6.80;3.50;;;;;;;;;;5109744;28;20214;-91
2022/11/08 00:23:37;;;;;;;6.23;2.70;;;;;;;;;;5092408;28;20220;-90
2022/11/08 00:26:06;;;;;;;5.27;2.30;;;;;;;;;;5117232;27;20192;-90
2022/11/08 00:28:34;;;;;;;9.83;4.43;;;;;;;;;;5116111;27;20243;-89
2022/11/08 00:31:05;;;;;;;6.00;2.27;;;;;;;;;;5092441;28;20205;-90
2022/11/08 00:33:36;;;;;;;8.50;3.57;;;;;;;;;;5093408;28;20204;-91
2022/11/08 00:36:05;;;;;;;9.23;4.10;;;;;;;;;;5109725;28;20201;-91
2022/11/08 00:38:33;;;;;;;7.17;3.40;;;;;;;;;;5109963;28;20188;-90
2022/11/08 00:41:01;;;;;;;11.63;5.27;;;;;;;;;;5092369;28;20216;-91
2022/11/08 00:43:30;;;;;;;6.40;3.23;;;;;;;;;;5092524;28;20253;-91
2022/11/08 00:45:58;;;;;;;9.60;3.60;;;;;;;;;;5109240;28;20295;-91
2022/11/08 00:48:27;;;;;;;9.63;4.20;;;;;;;;;;5109144;28;20246;-91
2022/11/08 00:51:00;;;;;;;10.47;3.83;;;;;;;;;;5093602;28;20204;-91
2022/11/08 00:53:29;;;;;;;7.97;3.20;;;;;;;;;;5092366;28;20281;-91
2022/11/08 00:56:01;;;;;;;8.70;3.67;;;;;;;;;;5092654;28;20211;-91
2022/11/08 00:58:30;;;;;;;11.20;3.97;;;;;;;;;;5096126;28;20197;-91
2022/11/08 01:00:58;;;;;;;6.10;3.43;;;;;;;;;;5093126;28;20213;-90
2022/11/08 01:03:27;;;;;;;8.77;3.90;;;;;;;;;;5092790;28;20324;-90
2022/11/08 01:05:57;;;;;;;11.63;4.27;;;;;;;;;;5093232;28;20212;-91
2022/11/08 01:08:25;;;;;;;10.63;4.83;;;;;;;;;;5109597;28;20193;-91
2022/11/08 01:10:53;;;;;;;8.83;3.93;;;;;;;;;;5093164;28;20258;-91
2022/11/08 01:13:22;;;;;;;5.30;2.70;;;;;;;;;;5092123;28;20193;-91
2022/11/08 01:15:51;;;;;;;8.90;3.83;;;;;;;;;;5109129;28;20201;-91
2022/11/08 01:18:19;;;;;;;6.97;3.43;;;;;;;;;;5110087;28;20223;-91
2022/11/08 01:20:49;;;;;;;12.13;3.47;;;;;;;;;;5091859;28;20234;-91
2022/11/08 01:23:19;;;;;;;8.37;3.10;;;;;;;;;;5093781;28;20193;-91
2022/11/08 01:25:49;;;;;;;6.77;3.77;;;;;;;;;;5109500;28;20197;-91
2022/11/08 01:28:17;;;;;;;9.23;2.70;;;;;;;;;;5109418;28;20205;-91
2022/11/08 01:30:46;;;;;;;8.60;3.57;;;;;;;;;;5092991;28;20193;-90
2022/11/08 01:33:15;;;;;;;17.60;4.93;;;;;;;;;;5092357;28;20227;-91
2022/11/08 01:35:45;;;;;;;3.13;2.53;;;;;;;;;;5095449;28;20203;-91
2022/11/08 01:38:13;;;;;;;8.73;4.17;;;;;;;;;;5096461;28;20246;-90
2022/11/08 01:40:45;;;;;;;8.87;3.13;;;;;;;;;;5083452;28;20277;-91
2022/11/08 01:43:34;;;;;;;8.10;4.33;;;;;;;;;;5095820;28;20236;-91
2022/11/08 01:46:17;;;;;;;6.20;3.60;;;;;;;;;;5112914;28;20197;-91
2022/11/08 01:48:47;;;;;;;12.90;4.23;;;;;;;;;;5096716;28;20201;-91
2022/11/08 01:51:16;;;;;;;8.10;3.63;;;;;;;;;;5095923;28;20203;-91
2022/11/08 01:53:45;;;;;;;8.00;4.07;;;;;;;;;;5082907;28;20289;-90
2022/11/08 01:56:16;;;;;;;10.10;4.30;;;;;;;;;;5112869;28;20243;-91
2022/11/08 01:58:45;;;;;;;8.00;3.83;;;;;;;;;;5104466;28;20203;-90
2022/11/08 02:01:13;;;;;;;10.53;4.97;;;;;;;;;;5096265;28;20217;-90
2022/11/08 02:03:42;;;;;;;11.20;4.57;;;;;;;;;;5111799;28;20251;-89
2022/11/08 02:06:11;;;;;;;9.20;4.53;;;;;;;;;;5095302;28;20200;-90
2022/11/08 02:08:41;;;;;;;15.37;5.30;;;;;;;;;;5095653;28;20207;-90
2022/11/08 02:11:10;;;;;;;10.63;4.77;;;;;;;;;;5096646;28;20197;-89
2022/11/08 02:13:41;;;;;;;8.13;4.70;;;;;;;;;;5095128;28;20201;-90
2022/11/08 02:16:12;;;;;;;12.37;5.53;;;;;;;;;;5112609;28;20196;-90
2022/11/08 02:18:40;;;;;;;9.07;3.67;;;;;;;;;;5091582;28;20205;-90
2022/11/08 02:21:11;;;;;;;13.07;4.80;;;;;;;;;;5095019;28;20216;-91
2022/11/08 02:23:48;;;;;;;10.13;4.60;;;;;;;;;;5095331;28;20200;-90
2022/11/08 02:26:16;;;;;;;8.40;4.67;;;;;;;;;;5107877;28;20207;-90
2022/11/08 02:28:46;;;;;;;10.80;4.70;;;;;;;;;;5112518;27;20208;-90
2022/11/08 02:31:16;;;;;;;8.43;4.17;;;;;;;;;;5111948;28;20199;-90
2022/11/08 02:33:45;;;;;;;11.40;5.17;;;;;;;;;;5094712;28;20240;-91
2022/11/08 02:36:16;;;;;;;7.30;4.37;;;;;;;;;;5094770;28;20201;-91
2022/11/08 02:38:46;;;;;;;7.13;4.27;;;;;;;;;;5094770;28;20212;-91
2022/11/08 02:41:16;;;;;;;9.50;5.23;;;;;;;;;;5111780;28;20218;-91
2022/11/08 02:43:44;;;;;;;7.43;4.43;;;;;;;;;;5111490;28;20269;-90
2022/11/08 02:46:13;;;;;;;8.70;4.77;;;;;;;;;;5094390;28;20211;-90
2022/11/08 02:48:41;;;;;;;11.97;5.60;;;;;;;;;;5095427;28;20204;-90
2022/11/08 02:51:10;;;;;;;8.63;4.07;;;;;;;;;;5111370;28;20204;-91
2022/11/08 02:53:38;;;;;;;9.70;4.77;;;;;;;;;;5107605;28;20234;-90
2022/11/08 02:56:06;;;;;;;7.50;4.80;;;;;;;;;;5122700;27;20196;-90
2022/11/08 02:58:36;;;;;;;9.33;5.27;;;;;;;;;;5113431;27;20207;-90
2022/11/08 03:03:41;;;;;;;8.10;4.40;;;;;;;;;;5701394;22;20253;-90
2022/11/08 03:06:10;;;;;;;8.93;4.43;;;;;;;;;;5045572;28;20193;-90
2022/11/08 03:08:39;;;;;;;9.97;4.80;;;;;;;;;;5046936;28;20212;-90
2022/11/08 03:11:07;;;;;;;12.57;4.83;;;;;;;;;;5037345;28;20192;-89
2022/11/08 03:13:37;;;;;;;5.70;3.63;;;;;;;;;;5038809;28;20236;-90
2022/11/08 03:16:06;;;;;;;7.70;4.37;;;;;;;;;;5037325;28;20200;-89
2022/11/08 03:18:35;;;;;;;6.67;3.43;;;;;;;;;;5037576;28;20274;-90
2022/11/08 03:21:04;;;;;;;6.10;3.70;;;;;;;;;;5058107;28;20255;-89
2022/11/08 03:23:42;;;;;;;6.23;3.47;;;;;;;;;;5036990;28;20213;-89
2022/11/08 03:26:18;;;;;;;6.57;5.03;;;;;;;;;;5036915;28;20208;-90
2022/11/08 03:28:48;;;;;;;6.90;3.90;;;;;;;;;;5053895;28;20220;-89
2022/11/08 03:31:16;;;;;;;8.83;4.70;;;;;;;;;;5037279;28;20201;-89
2022/11/08 03:33:45;;;;;;;9.80;3.20;;;;;;;;;;5011186;28;20245;-90
2022/11/08 03:36:13;;;;;;;5.70;3.83;;;;;;;;;;5031138;28;20266;-90
2022/11/08 03:38:42;;;;;;;4.57;3.63;;;;;;;;;;5067444;28;20266;-90
2022/11/08 03:41:10;;;;;;;7.07;3.03;;;;;;;;;;5036777;28;20206;-90
2022/11/08 03:43:38;;;;;;;8.30;4.70;;;;;;;;;;5068853;28;20259;-90
2022/11/08 03:46:08;;;;;;;12.00;4.33;;;;;;;;;;5047991;28;20201;-90
2022/11/08 03:48:37;;;;;;;4.93;3.97;;;;;;;;;;5036764;28;20698;-90
2022/11/08 03:51:05;;;;;;;7.60;4.33;;;;;;;;;;5036230;28;20216;-90
2022/11/08 03:53:33;;;;;;;10.60;5.30;;;;;;;;;;5054707;28;20216;-90
2022/11/08 03:56:08;;;;;;;6.70;4.63;;;;;;;;;;5036356;28;20205;-90
2022/11/08 03:58:37;;;;;;;8.80;4.17;;;;;;;;;;5039685;28;20206;-89
2022/11/08 04:01:05;;;;;;;8.50;4.63;;;;;;;;;;5055751;28;20249;-91
2022/11/08 04:03:35;;;;;;;9.77;4.57;;;;;;;;;;5036539;28;20225;-90
2022/11/08 04:06:04;;;;;;;9.73;5.23;;;;;;;;;;5048475;28;20239;-90
2022/11/08 04:08:32;;;;;;;8.33;4.00;;;;;;;;;;5036370;28;20204;-90
2022/11/08 04:15:13;;;;;;;3.90;3.20;;;;;;;;;;5066245;28;20277;-89
2022/11/08 04:16:35;;;;;;;7.97;4.30;;;;;;;;;;5054370;28;20196;-90
2022/11/08 04:21:53;;;;;;;15.17;3.73;;;;;;;;;;5036076;28;20309;-90
2022/11/08 04:24:21;;;;;;;6.20;3.73;;;;;;;;;;5035759;28;20235;-90
2022/11/08 04:26:50;;;;;;;6.07;3.13;;;;;;;;;;5035814;28;20296;-90
2022/11/08 04:29:18;;;;;;;9.27;4.10;;;;;;;;;;5037775;28;20208;-90
2022/11/08 04:31:47;;;;;;;4.70;3.50;;;;;;;;;;5045431;28;20202;-90
2022/11/08 04:34:16;;;;;;;5.77;3.80;;;;;;;;;;5048635;28;20198;-90
2022/11/08 04:36:45;;;;;;;5.80;3.93;;;;;;;;;;5034787;28;20209;-89
2022/11/08 04:39:13;;;;;;;5.83;2.83;;;;;;;;;;5041002;28;20207;-90
2022/11/08 04:41:42;;;;;;;5.80;2.90;;;;;;;;;;5043574;28;20204;-89
2022/11/08 04:44:10;;;;;;;7.83;4.40;;;;;;;;;;5036004;28;20200;-89
2022/11/08 04:46:39;;;;;;;8.77;5.53;;;;;;;;;;5047759;28;20208;-89
2022/11/08 04:49:07;;;;;;;8.63;4.33;;;;;;;;;;5023074;28;20299;-89
2022/11/08 04:51:37;;;;;;;8.63;3.50;;;;;;;;;;5036166;28;20259;-89
2022/11/08 04:54:06;;;;;;;5.57;4.33;;;;;;;;;;5029366;28;20199;-90
2022/11/08 04:56:35;;;;;;;7.67;3.63;;;;;;;;;;5041300;28;20224;-89
2022/11/08 04:59:03;;;;;;;10.70;3.80;;;;;;;;;;5039963;28;20224;-90
2022/11/08 05:01:38;;;;;;;4.00;3.13;;;;;;;;;;5046683;28;20203;-90
2022/11/08 05:04:07;;;;;;;7.90;3.63;;;;;;;;;;5045196;28;20271;-89
2022/11/08 05:06:37;;;;;;;6.43;3.77;;;;;;;;;;5048529;28;20197;-89
2022/11/08 05:09:05;;;;;;;8.27;4.27;;;;;;;;;;5036661;28;20201;-90
2022/11/08 05:11:34;;;;;;;5.27;2.97;;;;;;;;;;5042888;28;20204;-90
2022/11/08 05:14:02;;;;;;;7.30;4.20;;;;;;;;;;5059689;28;20218;-90
2022/11/08 05:16:31;;;;;;;5.63;3.63;;;;;;;;;;5041049;28;20205;-90
2022/11/08 05:19:00;;;;;;;6.67;3.87;;;;;;;;;;5039457;28;20239;-89
2022/11/08 05:24:17;;;;;;;6.47;3.43;;;;;;;;;;5040534;28;20204;-90
2022/11/08 05:26:46;;;;;;;7.60;4.07;;;;;;;;;;5042009;28;20205;-90
2022/11/08 05:29:15;;;;;;;7.53;3.50;;;;;;;;;;5035410;28;20246;-90
2022/11/08 05:31:44;;;;;;;6.30;4.07;;;;;;;;;;5039488;28;20251;-91
2022/11/08 05:34:12;;;;;;;5.40;3.63;;;;;;;;;;5039146;28;20192;-90
2022/11/08 05:36:42;;;;;;;8.67;4.83;;;;;;;;;;5057021;28;20198;-90
2022/11/08 05:39:10;;;;;;;6.17;4.13;;;;;;;;;;5043383;28;20209;-90
2022/11/08 05:41:40;;;;;;;6.53;4.60;;;;;;;;;;5047704;28;20206;-90
2022/11/08 05:44:09;;;;;;;4.23;3.60;;;;;;;;;;5038909;28;20220;-89
2022/11/08 05:46:38;;;;;;;5.67;4.00;;;;;;;;;;5038668;28;20194;-90
2022/11/08 05:49:06;;;;;;;6.33;4.27;;;;;;;;;;5056442;28;20202;-90
2022/11/08 05:51:34;;;;;;;4.17;3.07;;;;;;;;;;5056727;28;20199;-90
2022/11/08 05:54:03;;;;;;;8.07;4.33;;;;;;;;;;5033317;28;20200;-90
2022/11/08 05:56:31;;;;;;;3.87;3.53;;;;;;;;;;5044445;28;20197;-90
2022/11/08 05:59:01;;;;;;;7.17;4.43;;;;;;;;;;5038572;28;20272;-91
2022/11/08 06:01:29;;;;;;;5.03;3.83;;;;;;;;;;5038263;28;20304;-90
2022/11/08 06:03:58;;;;;;;4.37;3.00;;;;;;;;;;5046545;28;20231;-91
2022/11/08 06:06:30;;;;;;;5.03;4.03;;;;;;;;;;5042676;28;20201;-91
2022/11/08 06:08:58;;;;;;;7.10;3.97;;;;;;;;;;5047803;28;20228;-90
2022/11/08 06:11:27;;;;;;;6.83;4.03;;;;;;;;;;5072521;28;20264;-90
2022/11/08 06:13:56;;;;;;;5.07;4.00;;;;;;;;;;5038253;28;20200;-91
2022/11/08 06:16:26;;;;;;;6.50;3.80;;;;;;;;;;5051300;28;20198;-90
2022/11/08 06:18:54;;;;;;;4.43;3.07;;;;;;;;;;5038207;28;20226;-90
2022/11/08 06:21:26;;;;;;;8.77;4.30;;;;;;;;;;5050877;28;20210;-91
2022/11/08 06:23:54;;;;;;;6.40;4.40;;;;;;;;;;5037358;28;20240;-91
2022/11/08 06:26:24;;;;;;;4.87;3.77;;;;;;;;;;5055014;28;20204;-90
2022/11/08 06:28:53;;;;;;;5.90;4.17;;;;;;;;;;5037677;28;20202;-90
2022/11/08 06:31:21;;;;;;;5.77;3.60;;;;;;;;;;5037870;28;20245;-90
2022/11/08 06:33:51;;;;;;;8.93;4.63;;;;;;;;;;5038192;28;20192;-88
2022/11/08 06:36:20;;;;;;;4.50;4.10;;;;;;;;;;5038005;28;20201;-91
2022/11/08 06:38:48;;;;;;;3.80;3.13;;;;;;;;;;5038977;28;20208;-91
2022/11/08 06:41:18;;;;;;;4.23;3.70;;;;;;;;;;5075274;28;20200;-92
2022/11/08 06:43:47;;;;;;;4.80;3.57;;;;;;;;;;5041410;28;20213;-91
2022/11/08 06:46:16;;;;;;;4.60;3.50;;;;;;;;;;5038236;28;20200;-91
2022/11/08 06:48:47;;;;;;;5.20;2.80;;;;;;;;;;5029677;28;20259;-90
2022/11/08 06:51:20;;;;;;;4.73;3.50;;;;;;;;;;5037571;28;20202;-91
2022/11/08 06:53:48;;;;;;;5.67;4.13;;;;;;;;;;5025671;28;20200;-91
2022/11/08 06:56:17;;;;;;;4.70;3.57;;;;;;;;;;5045465;28;20236;-91
2022/11/08 06:58:45;;;;;;;7.90;3.03;;;;;;;;;;5050727;28;20205;-90
2022/11/08 07:01:29;;;;;;;4.17;2.70;;;;;;;;;;5037092;28;20201;-91
2022/11/08 07:03:58;;;;;;;4.00;3.10;;;;;;;;;;5017803;28;20237;-91
2022/11/08 07:06:28;;;;;;;5.63;3.07;;;;;;;;;;5029219;28;20253;-92
2022/11/08 07:08:56;;;;;;;6.60;3.23;;;;;;;;;;4962685;28;20227;-91
2022/11/08 07:11:25;;;;;;;4.43;3.40;;;;;;;;;;5004901;28;20224;-89
2022/11/08 07:13:53;;;;;;;4.60;2.17;;;;;;;;;;5019923;28;20217;-89
2022/11/08 07:16:22;;;;;;;6.20;3.23;;;;;;;;;;5036533;28;20201;-89
2022/11/08 07:18:50;;;;;;;4.20;2.33;;;;;;;;;;4953926;29;20296;-89
2022/11/08 07:21:19;;;;;;;4.80;3.03;;;;;;;;;;4940658;28;20264;-90
2022/11/08 07:23:48;;;;;;;4.27;2.97;;;;;;;;;;4995811;28;20279;-90
2022/11/08 07:26:17;;;;;;;5.40;3.10;;;;;;;;;;4955121;28;20208;-89
2022/11/08 07:28:45;;;;;;;4.33;3.10;;;;;;;;;;4965771;28;20295;-89
2022/11/08 07:31:14;;;;;;;3.80;3.40;;;;;;;;;;4954411;28;20216;-89
2022/11/08 07:33:42;;;;;;;2.97;2.30;;;;;;;;;;5034015;28;20209;-90
2022/11/08 07:36:11;;;;;;;4.90;3.17;;;;;;;;;;5010201;28;20208;-88
2022/11/08 07:38:39;;;;;;;4.03;3.00;;;;;;;;;;4999910;28;20195;-88
2022/11/08 07:41:09;;;;;;;6.77;3.30;;;;;;;;;;5017062;28;20200;-88
2022/11/08 07:43:37;;;;;;;4.20;2.87;;;;;;;;;;5020826;28;20304;-88
2022/11/08 07:46:06;;;;;;;6.60;3.07;;;;;;;;;;5019822;28;20295;-88
2022/11/08 07:48:34;;;;;;;4.27;3.17;;;;;;;;;;4954214;28;20219;-88
2022/11/08 07:51:03;;;;;;;7.10;4.23;;;;;;;;;;4960444;28;20215;-88
2022/11/08 07:56:52;;;;;;;6.30;3.10;;;;;;;;;;5031486;28;20298;-89
2022/11/08 07:59:38;;;;;;;4.40;2.80;;;;;;;;;;5012813;28;20211;-88
2022/11/08 08:05:43;;;;;;;3.23;2.83;;;;;;;;;;4938825;28;20226;-88
2022/11/08 08:09:19;;;;;;;4.53;3.10;;;;;;;;;;4983395;28;20207;-88
2022/11/08 08:44:02;;;;;;;4.37;3.00;;;;;;;;;;4768987;29;20243;-87
2022/11/08 08:46:31;;;;;;;4.70;2.80;;;;;;;;;;4921362;28;20220;-88
2022/11/08 08:49:02;;;;;;;2.73;2.50;;;;;;;;;;4980134;28;20207;-89
2022/11/08 08:55:02;;;;;;;3.73;3.10;;;;;;;;;;4948687;28;20215;-89
2022/11/08 09:00:28;;;;;;;7.07;2.83;;;;;;;;;;4877313;28;20203;-88
2022/11/08 09:03:17;;;;;;;5.47;3.20;;;;;;;;;;4984243;28;20232;-89
2022/11/08 09:05:46;;;;;;;2.23;2.03;;;;;;;;;;4983754;28;20270;-87
2022/11/08 09:08:15;;;;;;;3.27;2.93;;;;;;;;;;4990881;28;20201;-89
2022/11/08 09:10:44;;;;;;;5.77;2.80;;;;;;;;;;5046970;28;20201;-89
2022/11/08 09:13:13;;;;;;;5.60;2.63;;;;;;;;;;5030530;28;20213;-88
2022/11/08 09:15:43;;;;;;;4.20;3.17;;;;;;;;;;5021802;28;20198;-88
2022/11/08 09:18:13;;;;;;;5.53;3.10;;;;;;;;;;5022479;28;20205;-90
2022/11/08 09:20:48;;;;;;;3.10;2.20;;;;;;;;;;4995655;28;20209;-86
2022/11/08 09:23:17;;;;;;;3.80;2.90;;;;;;;;;;5025274;28;20209;-86
2022/11/08 09:25:56;;;;;;;2.63;2.20;;;;;;;;;;5029953;28;20226;-86
2022/11/08 09:28:31;;;;;;;4.13;2.70;;;;;;;;;;5020933;28;20199;-87
2022/11/08 09:31:03;;;;;;;1.63;1.30;;;;;;;;;;5027846;28;20215;-87
2022/11/08 09:33:33;;;;;;;4.00;3.03;;;;;;;;;;5023509;28;20287;-87
2022/11/08 09:36:10;;;;;;;5.77;3.30;;;;;;;;;;5017443;28;20293;-85
2022/11/08 09:38:45;;;;;;;4.40;3.13;;;;;;;;;;5025918;28;20187;-87
2022/11/08 09:41:25;;;;;;;3.77;2.50;;;;;;;;;;5022282;28;20210;-85
2022/11/08 09:44:19;;;;;;;3.33;2.50;;;;;;;;;;5014648;28;20222;-87
2022/11/08 09:46:53;;;;;;;2.50;2.30;;;;;;;;;;4989921;28;20211;-85
2022/11/08 09:52:22;;;;;;;6.47;2.87;;;;;;;;;;5013924;28;20210;-85
2022/11/08 09:55:02;;;;;;;6.30;2.60;;;;;;;;;;5021369;28;20272;-85
2022/11/08 09:57:51;;;;;;;3.83;2.37;;;;;;;;;;5016252;28;20214;-83
2022/11/08 10:00:23;;;;;;;3.60;2.73;;;;;;;;;;5042444;28;20214;-83
2022/11/08 10:03:09;;;;;;;2.37;2.03;;;;;;;;;;5041048;28;20287;-83
2022/11/08 10:05:40;;;;;;;4.50;2.50;;;;;;;;;;5023975;28;20324;-83
2022/11/08 10:08:14;;;;;;;3.53;2.00;;;;;;;;;;5036485;28;20206;-84
2022/11/08 10:10:56;;;;;;;5.20;2.90;;;;;;;;;;5024171;28;20261;-83
2022/11/08 10:13:31;;;;;;;3.40;2.50;;;;;;;;;;5024522;28;20237;-84
2022/11/08 10:16:02;;;;;;;3.30;2.00;;;;;;;;;;5037877;28;20194;-84
2022/11/08 10:18:48;;;;;;;4.87;2.80;;;;;;;;;;5024064;28;20195;-84
2022/11/08 10:21:22;;;;;;;1.97;1.73;;;;;;;;;;5021539;28;20236;-83
2022/11/08 10:23:56;;;;;;;3.53;2.13;;;;;;;;;;5043845;28;20260;-83
2022/11/08 10:26:30;;;;;;;2.47;2.27;;;;;;;;;;5045150;28;20307;-81
2022/11/08 10:29:02;;;;;;;3.50;2.70;;;;;;;;;;5022736;28;20234;-82
2022/11/08 10:31:33;;;;;;;1.47;1.43;;;;;;;;;;5024306;28;20301;-81
2022/11/08 10:34:17;;;;;;;4.90;2.63;;;;;;;;;;5019660;28;20519;-84
2022/11/08 10:36:49;;;;;;;4.83;2.70;;;;;;;;;;5022730;28;20212;-85
2022/11/08 10:39:22;;;;;;;4.30;2.90;;;;;;;;;;5042397;28;20203;-84
2022/11/08 10:41:57;;;;;;;5.43;2.97;;;;;;;;;;5029285;28;20211;-85
2022/11/08 10:44:28;;;;;;;5.20;3.20;;;;;;;;;;5019681;28;20238;-86
2022/11/08 10:47:01;;;;;;;3.03;2.70;;;;;;;;;;5024976;28;20210;-87
2022/11/08 10:49:32;;;;;;;1.77;1.67;;;;;;;;;;5024220;28;20270;-87
2022/11/08 10:52:03;;;;;;;3.27;1.87;;;;;;;;;;5024218;28;20222;-88
2022/11/08 10:54:42;;;;;;;3.13;2.07;;;;;;;;;;5024151;28;20208;-86
2022/11/08 10:57:12;;;;;;;3.33;2.77;;;;;;;;;;5037290;28;20201;-86
2022/11/08 10:59:50;;;;;;;4.27;2.50;;;;;;;;;;5027979;28;20210;-87
2022/11/08 11:02:26;;;;;;;7.63;2.63;;;;;;;;;;5025035;28;20297;-87
2022/11/08 11:05:12;;;;;;;4.20;2.87;;;;;;;;;;5020692;28;20239;-87
2022/11/08 11:08:01;;;;;;;3.00;2.57;;;;;;;;;;5024280;28;20206;-87
2022/11/08 11:10:39;;;;;;;3.27;2.53;;;;;;;;;;5012916;28;20203;-87
2022/11/08 11:13:11;;;;;;;2.47;2.27;;;;;;;;;;5022845;28;20202;-86
2022/11/08 11:15:51;;;;;;;4.47;2.50;;;;;;;;;;5029419;28;20282;-85
2022/11/08 11:18:30;;;;;;;3.13;2.50;;;;;;;;;;5024603;28;20203;-88
2022/11/08 11:21:07;;;;;;;4.43;2.17;;;;;;;;;;5025070;28;20281;-86
2022/11/08 11:23:38;;;;;;;5.10;2.97;;;;;;;;;;5026141;28;20210;-87
2022/11/08 11:26:09;;;;;;;5.20;2.90;;;;;;;;;;5041022;28;20220;-88
2022/11/08 11:28:57;;;;;;;2.97;2.70;;;;;;;;;;5024432;28;20300;-86
2022/11/08 11:31:32;;;;;;;3.47;2.40;;;;;;;;;;5038849;28;20233;-86
2022/11/08 11:34:34;;;;;;;3.93;2.00;;;;;;;;;;5026930;28;20301;-87
2022/11/08 11:37:15;;;;;;;3.23;2.03;;;;;;;;;;5023335;28;20198;-85
2022/11/08 11:39:54;;;;;;;5.83;2.43;;;;;;;;;;5034157;28;20519;-84
2022/11/08 11:42:28;;;;;;;3.93;2.57;;;;;;;;;;5052777;28;20206;-87
2022/11/08 11:45:20;;;;;;;4.90;2.80;;;;;;;;;;5026566;28;20226;-88
2022/11/08 11:47:53;;;;;;;5.20;2.07;;;;;;;;;;5027195;28;20203;-87
2022/11/08 11:50:26;;;;;;;2.77;2.13;;;;;;;;;;5025164;28;20305;-87
2022/11/08 11:52:55;;;;;;;3.43;2.33;;;;;;;;;;5037531;28;20208;-86
2022/11/08 11:55:28;;;;;;;6.20;2.57;;;;;;;;;;5026608;28;20200;-86
2022/11/08 11:58:05;;;;;;;4.90;2.00;;;;;;;;;;5033687;28;20211;-85
2022/11/08 12:08:31;;;;;;;6.27;2.67;;;;;;;;;;5028515;28;20197;-86
2022/11/08 12:11:46;;;;;;;5.17;2.53;;;;;;;;;;4949417;28;20215;-86
2022/11/08 12:14:44;;;;;;;4.97;2.33;;;;;;;;;;4966441;28;20217;-86
2022/11/08 12:17:33;;;;;;;2.70;2.07;;;;;;;;;;4892045;29;20212;-86
2022/11/08 12:20:10;;;;;;;5.07;3.23;;;;;;;;;;4936700;28;20213;-84
2022/11/08 12:22:44;;;;;;;3.90;2.90;;;;;;;;;;4960578;28;20216;-86
2022/11/08 12:25:42;;;;;;;4.60;3.00;;;;;;;;;;4949739;28;20206;-86
2022/11/08 12:28:32;;;;;;;4.73;2.70;;;;;;;;;;4948747;28;20212;-87
2022/11/08 12:31:14;;;;;;;3.87;1.97;;;;;;;;;;4949426;28;20282;-86
2022/11/08 12:33:48;;;;;;;5.07;3.30;;;;;;;;;;4963781;28;20213;-86
2022/11/08 12:36:34;;;;;;;3.63;2.57;;;;;;;;;;4951525;28;20214;-88
2022/11/08 12:39:08;;;;;;;3.60;2.67;;;;;;;;;;4961097;28;20209;-87
2022/11/08 12:41:41;;;;;;;4.10;2.23;;;;;;;;;;5012444;28;20210;-87
2022/11/08 12:44:28;;;;;;;2.63;2.13;;;;;;;;;;5033158;28;20242;-85
2022/11/08 12:47:03;;;;;;;3.30;2.30;;;;;;;;;;5027456;28;20218;-87
2022/11/08 12:49:36;;;;;;;7.33;3.30;;;;;;;;;;5025512;28;20202;-87
2022/11/08 12:52:13;;;;;;;10.47;2.97;;;;;;;;;;5031155;28;20202;-86
2022/11/08 12:54:55;;;;;;;8.43;1.80;;;;;;;;;;5027796;28;20213;-86
2022/11/08 12:57:27;;;;;;;2.90;2.23;;;;;;;;;;5028767;28;20201;-86
2022/11/08 13:00:05;;;;;;;4.43;2.47;;;;;;;;;;5021613;28;20227;-87
2022/11/08 13:02:38;;;;;;;3.30;1.73;;;;;;;;;;5049934;28;20207;-87
2022/11/08 13:05:10;;;;;;;8.80;3.10;;;;;;;;;;5023745;28;20250;-83
2022/11/08 13:10:57;;;;;;;4.77;2.80;;;;;;;;;;5022047;28;20206;-90
2022/11/08 13:13:50;;;;;;;3.60;1.83;;;;;;;;;;5044213;28;20196;-89
2022/11/08 13:16:31;;;;;;;1.63;1.23;;;;;;;;;;5045751;28;20195;-87
2022/11/08 13:19:29;;;;;;;3.43;2.53;;;;;;;;;;5025024;28;20240;-86
2022/11/08 13:22:01;;;;;;;3.90;2.43;;;;;;;;;;5022318;28;20208;-85
2022/11/08 13:24:35;;;;;;;6.37;2.50;;;;;;;;;;5025108;28;20291;-88
2022/11/08 13:27:23;;;;;;;7.10;2.80;;;;;;;;;;5024981;28;20218;-86
2022/11/08 13:29:52;;;;;;;5.20;2.40;;;;;;;;;;5037139;28;20203;-86
2022/11/08 13:32:40;;;;;;;5.03;2.63;;;;;;;;;;5042219;28;20199;-86
2022/11/08 13:35:15;;;;;;;4.97;1.93;;;;;;;;;;5042594;28;20297;-84
2022/11/08 13:37:53;;;;;;;4.13;2.10;;;;;;;;;;5027701;28;20198;-84
2022/11/08 13:40:44;;;;;;;4.73;2.50;;;;;;;;;;5044601;28;20318;-85
2022/11/08 13:43:28;;;;;;;5.87;2.40;;;;;;;;;;5026032;28;20252;-85
2022/11/08 13:45:57;;;;;;;5.57;2.80;;;;;;;;;;5031006;28;20203;-86
2022/11/08 13:48:44;;;;;;;5.20;2.60;;;;;;;;;;5027571;28;20210;-86
2022/11/08 13:51:27;;;;;;;6.67;3.20;;;;;;;;;;5027119;28;20593;-86
2022/11/08 13:53:57;;;;;;;2.97;2.10;;;;;;;;;;5041447;28;20276;-84
2022/11/08 13:56:44;;;;;;;7.40;2.83;;;;;;;;;;5033857;28;20223;-86
2022/11/08 13:59:46;;;;;;;2.90;1.93;;;;;;;;;;5020357;28;20202;-86
2022/11/08 14:02:32;;;;;;;5.00;2.50;;;;;;;;;;4952523;28;20213;-84
2022/11/08 14:05:21;;;;;;;22.83;4.50;;;;;;;;;;4947884;28;20284;-86
2022/11/08 14:08:11;;;;;;;8.83;3.17;;;;;;;;;;4999174;28;20241;-83
2022/11/08 14:10:44;;;;;;;6.50;3.23;;;;;;;;;;5015694;28;20277;-85
2022/11/08 14:13:21;;;;;;;6.13;3.07;;;;;;;;;;5049994;28;20298;-85
2022/11/08 14:15:56;;;;;;;4.47;2.17;;;;;;;;;;5029536;28;20202;-84
2022/11/08 14:18:27;;;;;;;4.37;3.00;;;;;;;;;;5027256;28;20253;-85
2022/11/08 14:20:57;;;;;;;3.33;2.67;;;;;;;;;;5039453;28;21646;-85
2022/11/08 14:23:27;;;;;;;4.67;2.20;;;;;;;;;;5026815;28;20298;-85
2022/11/08 14:25:57;;;;;;;4.93;2.67;;;;;;;;;;5028176;28;20231;-83
2022/11/08 14:28:28;;;;;;;3.70;2.57;;;;;;;;;;5041796;28;20856;-84
2022/11/08 14:30:56;;;;;;;5.67;2.60;;;;;;;;;;5025465;28;20231;-83
2022/11/08 14:33:27;;;;;;;4.23;2.70;;;;;;;;;;5020427;28;20203;-84
2022/11/08 14:35:57;;;;;;;4.30;2.30;;;;;;;;;;5023140;28;20226;-84
2022/11/08 14:38:27;;;;;;;8.40;3.03;;;;;;;;;;5027837;28;20206;-84
2022/11/08 14:40:58;;;;;;;6.43;3.03;;;;;;;;;;5030298;28;20203;-85
2022/11/08 14:43:29;;;;;;;4.03;2.87;;;;;;;;;;5024772;28;20211;-84
2022/11/08 14:45:58;;;;;;;4.50;2.93;;;;;;;;;;5044150;28;20210;-84
2022/11/08 14:48:30;;;;;;;5.33;2.60;;;;;;;;;;5042753;28;20304;-86
2022/11/08 14:50:59;;;;;;;4.63;2.73;;;;;;;;;;5037072;28;20310;-85
2022/11/08 14:54:04;;;;;;;3.37;2.33;;;;;;;;;;5024905;28;20226;-86
2022/11/08 14:57:03;;;;;;;6.07;3.20;;;;;;;;;;4996219;28;20217;-85
2022/11/08 14:59:41;;;;;;;3.83;2.27;;;;;;;;;;5021616;28;20209;-85
2022/11/08 15:02:12;;;;;;;6.57;3.23;;;;;;;;;;5026905;28;20206;-85
2022/11/08 15:04:43;;;;;;;0.83;0.63;;;;;;;;;;5030339;28;20237;-85
2022/11/08 15:07:27;;;;;;;4.37;2.50;;;;;;;;;;5026592;28;20210;-85
2022/11/08 15:10:08;;;;;;;5.27;2.47;;;;;;;;;;5021940;28;20206;-85
2022/11/08 15:12:41;;;;;;;3.80;2.90;;;;;;;;;;5023642;28;20285;-83
2022/11/08 15:15:18;;;;;;;6.67;2.93;;;;;;;;;;5038255;28;20277;-82
2022/11/08 15:18:05;;;;;;;4.17;3.20;;;;;;;;;;5022852;28;20210;-82
2022/11/08 15:20:41;;;;;;;3.60;2.77;;;;;;;;;;5023501;28;20300;-84
2022/11/08 15:23:27;;;;;;;5.60;2.90;;;;;;;;;;5018833;28;20198;-85
2022/11/08 15:26:18;;;;;;;6.10;3.00;;;;;;;;;;5019864;28;20202;-84
2022/11/08 15:28:55;;;;;;;3.90;2.17;;;;;;;;;;5013991;28;20311;-85
2022/11/08 15:31:26;;;;;;;4.17;2.47;;;;;;;;;;5038181;28;20203;-85
2022/11/08 15:33:55;;;;;;;2.53;1.93;;;;;;;;;;5040555;28;20207;-83
2022/11/08 15:36:36;;;;;;;4.17;2.70;;;;;;;;;;5021388;28;20219;-85
2022/11/08 15:39:33;;;;;;;3.27;2.47;;;;;;;;;;5026758;28;20284;-86
2022/11/08 15:42:36;;;;;;;9.37;3.37;;;;;;;;;;5040622;28;20209;-86
2022/11/08 15:45:53;;;;;;;2.80;1.70;;;;;;;;;;4952706;28;20245;-86
2022/11/08 15:48:56;;;;;;;4.47;2.80;;;;;;;;;;5023593;28;20214;-85
2022/11/08 15:51:45;;;;;;;6.63;2.90;;;;;;;;;;5027597;28;20222;-84
2022/11/08 15:54:16;;;;;;;4.13;2.57;;;;;;;;;;5020415;28;20295;-84
2022/11/08 15:56:50;;;;;;;4.03;2.80;;;;;;;;;;5024660;28;20209;-86
2022/11/08 15:59:32;;;;;;;8.07;2.87;;;;;;;;;;5026774;28;20203;-86
2022/11/08 16:02:14;;;;;;;8.23;4.30;;;;;;;;;;5023941;28;20198;-86
2022/11/08 16:04:48;;;;;;;3.67;2.67;;;;;;;;;;5029952;28;20249;-87
2022/11/08 16:07:20;;;;;;;2.83;2.00;;;;;;;;;;5031875;28;20217;-92
2022/11/08 16:09:49;;;;;;;3.80;2.33;;;;;;;;;;5039892;28;20251;-93
2022/11/08 16:12:35;;;;;;;4.03;2.47;;;;;;;;;;5042835;28;20285;-92
2022/11/08 16:15:03;;;;;;;7.60;2.93;;;;;;;;;;5042647;28;20198;-92
2022/11/08 16:17:33;;;;;;;4.93;3.00;;;;;;;;;;5061110;28;20196;-94
2022/11/08 16:20:03;;;;;;;4.33;2.63;;;;;;;;;;5037568;28;20203;-91
2022/11/08 16:22:33;;;;;;;3.37;2.80;;;;;;;;;;5030351;28;20211;-92
2022/11/08 16:25:01;;;;;;;2.80;2.20;;;;;;;;;;5060503;28;20285;-92
2022/11/08 16:27:50;;;;;;;4.57;2.30;;;;;;;;;;5049401;28;20265;-92
2022/11/08 16:30:18;;;;;;;3.47;3.07;;;;;;;;;;5036625;28;20203;-93
2022/11/08 16:32:47;;;;;;;5.90;2.97;;;;;;;;;;5036624;28;20267;-93
2022/11/08 16:35:16;;;;;;;4.47;1.77;;;;;;;;;;5054715;28;20276;-92
2022/11/08 16:37:46;;;;;;;4.90;3.37;;;;;;;;;;5044673;28;20293;-87
2022/11/08 16:40:19;;;;;;;7.90;3.50;;;;;;;;;;5036787;28;20198;-92
2022/11/08 16:42:48;;;;;;;5.87;2.90;;;;;;;;;;5035909;28;20209;-92
2022/11/08 16:45:19;;;;;;;11.87;3.27;;;;;;;;;;5041042;28;20245;-93